sensor_id;sensor_type;location;lat;lon;timestamp;temperature;humidity
14236;DHT22;7202;50.718;7.072;2022-12-07T00:01:45;4.90;99.90
14236;DHT22;7202;50.718;7.072;2022-12-07T00:04:16;4.90;99.90
14236;DHT22;7202;50.718;7.072;2022-12-07T00:06:47;4.90;99.90
14236;DHT22;7202;50.718;7.072;2022-12-07T00:09:20;5.00;99.90
14236;DHT22;7202;50.718;7.072;2022-12-07T00:11:51;4.90;99.90
14236;DHT22;7202;50.718;7.072;2022-12-07T00:14:20;4.90;99.90
14236;DHT22;7202;50.718;7.072;2022-12-07T00:16:49;4.90;99.90
14236;DHT22;7202;50.718;7.072;2022-12-07T00:19:19;4.90;99.90
14236;DHT22;7202;50.718;7.072;2022-12-07T00:21:48;5.00;99.90
14236;DHT22;7202;50.718;7.072;2022-12-07T00:24:16;5.00;99.90
14236;DHT22;7202;50.718;7.072;2022-12-07T00:26:46;4.90;99.90
14236;DHT22;7202;50.718;7.072;2022-12-07T00:29:17;5.00;99.90
14236;DHT22;7202;50.718;7.072;2022-12-07T00:31:47;5.00;99.90
14236;DHT22;7202;50.718;7.072;2022-12-07T00:34:18;4.90;99.90
14236;DHT22;7202;50.718;7.072;2022-12-07T00:36:48;5.00;99.90
14236;DHT22;7202;50.718;7.072;2022-12-07T00:39:17;5.00;99.90
14236;DHT22;7202;50.718;7.072;2022-12-07T00:41:45;5.00;99.90
14236;DHT22;7202;50.718;7.072;2022-12-07T00:44:15;5.00;99.90
14236;DHT22;7202;50.718;7.072;2022-12-07T00:46:44;5.00;99.90
14236;DHT22;7202;50.718;7.072;2022-12-07T00:49:13;5.10;99.90
14236;DHT22;7202;50.718;7.072;2022-12-07T00:51:42;5.10;99.90
14236;DHT22;7202;50.718;7.072;2022-12-07T00:54:11;5.10;99.90
14236;DHT22;7202;50.718;7.072;2022-12-07T00:56:39;5.10;99.90
14236;DHT22;7202;50.718;7.072;2022-12-07T00:59:11;5.10;99.90
14236;DHT22;7202;50.718;7.072;2022-12-07T01:01:42;5.10;99.90
14236;DHT22;7202;50.718;7.072;2022-12-07T01:04:11;5.20;99.90
14236;DHT22;7202;50.718;7.072;2022-12-07T01:06:39;5.20;99.90
14236;DHT22;7202;50.718;7.072;2022-12-07T01:09:08;5.20;99.90
14236;DHT22;7202;50.718;7.072;2022-12-07T01:11:37;5.20;99.90
14236;DHT22;7202;50.718;7.072;2022-12-07T01:14:05;5.20;99.90
14236;DHT22;7202;50.718;7.072;2022-12-07T01:16:34;5.20;99.90
14236;DHT22;7202;50.718;7.072;2022-12-07T01:19:04;5.20;99.90
14236;DHT22;7202;50.718;7.072;2022-12-07T01:21:34;5.20;99.90
14236;DHT22;7202;50.718;7.072;2022-12-07T01:24:06;5.20;99.90
14236;DHT22;7202;50.718;7.072;2022-12-07T01:26:35;5.20;99.90
14236;DHT22;7202;50.718;7.072;2022-12-07T01:29:04;5.20;99.90
14236;DHT22;7202;50.718;7.072;2022-12-07T01:31:33;5.20;99.90
14236;DHT22;7202;50.718;7.072;2022-12-07T01:34:01;5.30;99.90
14236;DHT22;7202;50.718;7.072;2022-12-07T01:36:34;5.20;99.90
14236;DHT22;7202;50.718;7.072;2022-12-07T01:39:05;5.20;99.90
14236;DHT22;7202;50.718;7.072;2022-12-07T01:41:36;5.20;99.90
14236;DHT22;7202;50.718;7.072;2022-12-07T01:44:10;5.20;99.90
14236;DHT22;7202;50.718;7.072;2022-12-07T01:46:40;5.20;99.90
14236;DHT22;7202;50.718;7.072;2022-12-07T01:49:12;5.30;99.90
14236;DHT22;7202;50.718;7.072;2022-12-07T01:51:45;5.30;99.90
14236;DHT22;7202;50.718;7.072;2022-12-07T01:54:15;5.20;99.90
14236;DHT22;7202;50.718;7.072;2022-12-07T01:56:49;5.20;99.90
14236;DHT22;7202;50.718;7.072;2022-12-07T01:59:19;5.30;99.90
14236;DHT22;7202;50.718;7.072;2022-12-07T02:01:49;5.30;99.90
14236;DHT22;7202;50.718;7.072;2022-12-07T02:04:18;5.20;99.90
14236;DHT22;7202;50.718;7.072;2022-12-07T02:06:49;5.20;99.90
14236;DHT22;7202;50.718;7.072;2022-12-07T02:09:18;5.30;99.90
14236;DHT22;7202;50.718;7.072;2022-12-07T02:11:47;5.30;99.90
14236;DHT22;7202;50.718;7.072;2022-12-07T02:14:16;5.30;99.90
14236;DHT22;7202;50.718;7.072;2022-12-07T02:16:54;5.30;99.90
14236;DHT22;7202;50.718;7.072;2022-12-07T02:22:55;5.40;99.90
14236;DHT22;7202;50.718;7.072;2022-12-07T02:25:39;5.40;99.90
14236;DHT22;7202;50.718;7.072;2022-12-07T02:28:20;5.40;99.90
14236;DHT22;7202;50.718;7.072;2022-12-07T02:31:01;5.40;99.90
14236;DHT22;7202;50.718;7.072;2022-12-07T02:33:33;5.40;99.90
14236;DHT22;7202;50.718;7.072;2022-12-07T02:36:06;5.40;99.90
14236;DHT22;7202;50.718;7.072;2022-12-07T02:38:39;5.40;99.90
14236;DHT22;7202;50.718;7.072;2022-12-07T02:41:11;5.40;99.90
14236;DHT22;7202;50.718;7.072;2022-12-07T02:43:44;5.40;99.90
14236;DHT22;7202;50.718;7.072;2022-12-07T02:46:19;5.50;99.90
14236;DHT22;7202;50.718;7.072;2022-12-07T02:48:50;5.40;99.90
14236;DHT22;7202;50.718;7.072;2022-12-07T02:51:20;5.40;99.90
14236;DHT22;7202;50.718;7.072;2022-12-07T02:53:49;5.40;99.90
14236;DHT22;7202;50.718;7.072;2022-12-07T02:56:24;5.40;99.90
14236;DHT22;7202;50.718;7.072;2022-12-07T02:59:00;5.40;99.90
14236;DHT22;7202;50.718;7.072;2022-12-07T03:01:39;5.40;99.90
14236;DHT22;7202;50.718;7.072;2022-12-07T03:04:26;5.40;99.90
14236;DHT22;7202;50.718;7.072;2022-12-07T03:07:06;5.40;99.90
14236;DHT22;7202;50.718;7.072;2022-12-07T03:09:48;5.40;99.90
14236;DHT22;7202;50.718;7.072;2022-12-07T03:12:24;5.40;99.90
14236;DHT22;7202;50.718;7.072;2022-12-07T03:15:03;5.40;99.90
14236;DHT22;7202;50.718;7.072;2022-12-07T03:17:39;5.40;99.90
14236;DHT22;7202;50.718;7.072;2022-12-07T03:20:11;5.40;99.90
14236;DHT22;7202;50.718;7.072;2022-12-07T03:22:42;5.40;99.90
14236;DHT22;7202;50.718;7.072;2022-12-07T03:25:14;5.40;99.90
14236;DHT22;7202;50.718;7.072;2022-12-07T03:27:48;5.40;99.90
14236;DHT22;7202;50.718;7.072;2022-12-07T03:30:20;5.40;99.90
14236;DHT22;7202;50.718;7.072;2022-12-07T03:32:58;5.40;99.90
14236;DHT22;7202;50.718;7.072;2022-12-07T03:35:32;5.40;99.90
14236;DHT22;7202;50.718;7.072;2022-12-07T03:38:08;5.40;99.90
14236;DHT22;7202;50.718;7.072;2022-12-07T03:40:43;5.40;99.90
14236;DHT22;7202;50.718;7.072;2022-12-07T03:43:13;5.40;99.90
14236;DHT22;7202;50.718;7.072;2022-12-07T03:45:43;5.40;99.90
14236;DHT22;7202;50.718;7.072;2022-12-07T03:48:22;5.40;99.90
14236;DHT22;7202;50.718;7.072;2022-12-07T03:50:55;5.40;99.90
14236;DHT22;7202;50.718;7.072;2022-12-07T03:53:29;5.50;99.90
14236;DHT22;7202;50.718;7.072;2022-12-07T03:56:00;5.40;99.90
14236;DHT22;7202;50.718;7.072;2022-12-07T03:58:30;5.40;99.90
14236;DHT22;7202;50.718;7.072;2022-12-07T04:00:59;5.50;99.90
14236;DHT22;7202;50.718;7.072;2022-12-07T04:03:29;5.50;99.90
14236;DHT22;7202;50.718;7.072;2022-12-07T04:05:58;5.50;99.90
14236;DHT22;7202;50.718;7.072;2022-12-07T04:08:27;5.50;99.90
14236;DHT22;7202;50.718;7.072;2022-12-07T04:10:55;5.60;99.90
14236;DHT22;7202;50.718;7.072;2022-12-07T04:13:24;5.60;99.90
14236;DHT22;7202;50.718;7.072;2022-12-07T04:15:52;5.60;99.90
14236;DHT22;7202;50.718;7.072;2022-12-07T04:18:21;5.60;99.90
14236;DHT22;7202;50.718;7.072;2022-12-07T04:20:51;5.80;99.90
14236;DHT22;7202;50.718;7.072;2022-12-07T04:23:20;5.60;99.90
14236;DHT22;7202;50.718;7.072;2022-12-07T04:25:48;5.70;99.90
14236;DHT22;7202;50.718;7.072;2022-12-07T04:28:17;5.60;99.90
14236;DHT22;7202;50.718;7.072;2022-12-07T04:30:45;5.60;99.90
14236;DHT22;7202;50.718;7.072;2022-12-07T04:33:14;5.70;99.90
14236;DHT22;7202;50.718;7.072;2022-12-07T04:35:42;5.60;99.90
14236;DHT22;7202;50.718;7.072;2022-12-07T04:38:12;5.60;99.90
14236;DHT22;7202;50.718;7.072;2022-12-07T04:40:41;5.60;99.90
14236;DHT22;7202;50.718;7.072;2022-12-07T04:43:10;5.60;99.90
14236;DHT22;7202;50.718;7.072;2022-12-07T04:45:38;6.10;99.90
14236;DHT22;7202;50.718;7.072;2022-12-07T04:48:07;5.60;99.90
14236;DHT22;7202;50.718;7.072;2022-12-07T04:50:35;5.60;99.90
14236;DHT22;7202;50.718;7.072;2022-12-07T04:53:13;5.60;99.90
14236;DHT22;7202;50.718;7.072;2022-12-07T04:55:42;5.60;99.90
14236;DHT22;7202;50.718;7.072;2022-12-07T04:58:12;5.60;99.90
14236;DHT22;7202;50.718;7.072;2022-12-07T05:00:41;5.50;99.90
14236;DHT22;7202;50.718;7.072;2022-12-07T05:03:09;5.50;99.90
14236;DHT22;7202;50.718;7.072;2022-12-07T05:05:40;5.40;99.90
14236;DHT22;7202;50.718;7.072;2022-12-07T05:08:08;5.50;99.90
14236;DHT22;7202;50.718;7.072;2022-12-07T05:10:38;5.40;99.90
14236;DHT22;7202;50.718;7.072;2022-12-07T05:13:07;5.50;99.90
14236;DHT22;7202;50.718;7.072;2022-12-07T05:15:35;5.40;99.90
14236;DHT22;7202;50.718;7.072;2022-12-07T05:18:04;5.40;99.90
14236;DHT22;7202;50.718;7.072;2022-12-07T05:20:33;5.40;99.90
14236;DHT22;7202;50.718;7.072;2022-12-07T05:23:08;5.30;99.90
14236;DHT22;7202;50.718;7.072;2022-12-07T05:25:38;5.30;99.90
14236;DHT22;7202;50.718;7.072;2022-12-07T05:28:07;5.30;99.90
14236;DHT22;7202;50.718;7.072;2022-12-07T05:30:36;5.30;99.90
14236;DHT22;7202;50.718;7.072;2022-12-07T05:33:04;5.20;99.90
14236;DHT22;7202;50.718;7.072;2022-12-07T05:35:33;5.30;99.90
14236;DHT22;7202;50.718;7.072;2022-12-07T05:38:02;5.20;99.90
14236;DHT22;7202;50.718;7.072;2022-12-07T05:40:30;5.20;99.90
14236;DHT22;7202;50.718;7.072;2022-12-07T05:43:00;5.20;99.90
14236;DHT22;7202;50.718;7.072;2022-12-07T05:45:31;5.20;99.90
14236;DHT22;7202;50.718;7.072;2022-12-07T05:48:00;5.20;99.90
14236;DHT22;7202;50.718;7.072;2022-12-07T05:50:28;5.20;99.90
14236;DHT22;7202;50.718;7.072;2022-12-07T05:53:00;5.20;99.90
14236;DHT22;7202;50.718;7.072;2022-12-07T05:55:29;5.20;99.90
14236;DHT22;7202;50.718;7.072;2022-12-07T05:57:57;5.30;99.90
14236;DHT22;7202;50.718;7.072;2022-12-07T06:00:44;5.30;99.90
14236;DHT22;7202;50.718;7.072;2022-12-07T06:03:17;5.30;99.90
14236;DHT22;7202;50.718;7.072;2022-12-07T06:05:46;5.30;99.90
14236;DHT22;7202;50.718;7.072;2022-12-07T06:08:15;5.20;99.90
14236;DHT22;7202;50.718;7.072;2022-12-07T06:10:43;5.30;99.90
14236;DHT22;7202;50.718;7.072;2022-12-07T06:13:12;5.30;99.90
14236;DHT22;7202;50.718;7.072;2022-12-07T06:15:39;5.20;99.90
14236;DHT22;7202;50.718;7.072;2022-12-07T06:18:09;5.30;99.90
14236;DHT22;7202;50.718;7.072;2022-12-07T06:20:38;5.30;99.90
14236;DHT22;7202;50.718;7.072;2022-12-07T06:23:07;5.30;99.90
14236;DHT22;7202;50.718;7.072;2022-12-07T06:25:38;5.30;99.90
14236;DHT22;7202;50.718;7.072;2022-12-07T06:28:06;5.30;99.90
14236;DHT22;7202;50.718;7.072;2022-12-07T06:30:35;5.30;99.90
14236;DHT22;7202;50.718;7.072;2022-12-07T06:33:04;5.30;99.90
14236;DHT22;7202;50.718;7.072;2022-12-07T06:35:34;5.30;99.90
14236;DHT22;7202;50.718;7.072;2022-12-07T06:38:03;5.40;99.90
14236;DHT22;7202;50.718;7.072;2022-12-07T06:40:32;5.40;99.90
14236;DHT22;7202;50.718;7.072;2022-12-07T06:43:00;5.40;99.90
14236;DHT22;7202;50.718;7.072;2022-12-07T06:45:29;5.40;99.90
14236;DHT22;7202;50.718;7.072;2022-12-07T06:47:57;5.30;99.90
14236;DHT22;7202;50.718;7.072;2022-12-07T06:50:26;5.30;99.90
14236;DHT22;7202;50.718;7.072;2022-12-07T06:52:56;5.30;99.90
14236;DHT22;7202;50.718;7.072;2022-12-07T06:55:25;5.30;99.90
14236;DHT22;7202;50.718;7.072;2022-12-07T06:57:53;5.30;99.90
14236;DHT22;7202;50.718;7.072;2022-12-07T07:00:22;5.20;99.90
14236;DHT22;7202;50.718;7.072;2022-12-07T07:02:51;5.20;99.90
14236;DHT22;7202;50.718;7.072;2022-12-07T07:05:19;5.10;99.90
14236;DHT22;7202;50.718;7.072;2022-12-07T07:07:49;5.10;99.90
14236;DHT22;7202;50.718;7.072;2022-12-07T07:10:40;5.10;99.90
14236;DHT22;7202;50.718;7.072;2022-12-07T07:13:09;5.10;99.90
14236;DHT22;7202;50.718;7.072;2022-12-07T07:15:38;5.00;99.90
14236;DHT22;7202;50.718;7.072;2022-12-07T07:18:07;5.00;99.90
14236;DHT22;7202;50.718;7.072;2022-12-07T07:20:35;5.00;99.90
14236;DHT22;7202;50.718;7.072;2022-12-07T07:23:04;5.00;99.90
14236;DHT22;7202;50.718;7.072;2022-12-07T07:25:33;4.90;99.90
14236;DHT22;7202;50.718;7.072;2022-12-07T07:28:04;4.90;99.90
14236;DHT22;7202;50.718;7.072;2022-12-07T07:30:32;5.00;99.90
14236;DHT22;7202;50.718;7.072;2022-12-07T07:33:02;4.90;99.90
14236;DHT22;7202;50.718;7.072;2022-12-07T07:35:32;4.90;99.90
14236;DHT22;7202;50.718;7.072;2022-12-07T07:38:02;4.90;99.90
14236;DHT22;7202;50.718;7.072;2022-12-07T07:40:30;4.90;99.90
14236;DHT22;7202;50.718;7.072;2022-12-07T07:42:59;4.90;99.90
14236;DHT22;7202;50.718;7.072;2022-12-07T07:45:29;4.90;99.90
14236;DHT22;7202;50.718;7.072;2022-12-07T07:47:57;4.90;99.90
14236;DHT22;7202;50.718;7.072;2022-12-07T07:50:26;5.00;99.90
14236;DHT22;7202;50.718;7.072;2022-12-07T07:52:56;5.00;99.90
14236;DHT22;7202;50.718;7.072;2022-12-07T07:55:25;5.00;99.90
14236;DHT22;7202;50.718;7.072;2022-12-07T07:57:54;5.10;99.90
14236;DHT22;7202;50.718;7.072;2022-12-07T08:00:23;5.10;99.90
14236;DHT22;7202;50.718;7.072;2022-12-07T08:02:53;5.00;99.90
14236;DHT22;7202;50.718;7.072;2022-12-07T08:05:21;5.10;99.90
14236;DHT22;7202;50.718;7.072;2022-12-07T08:07:50;5.10;99.90
14236;DHT22;7202;50.718;7.072;2022-12-07T08:10:19;5.10;99.90
14236;DHT22;7202;50.718;7.072;2022-12-07T08:12:47;5.20;99.90
14236;DHT22;7202;50.718;7.072;2022-12-07T08:15:36;5.20;99.90
14236;DHT22;7202;50.718;7.072;2022-12-07T08:18:07;5.20;99.90
14236;DHT22;7202;50.718;7.072;2022-12-07T08:20:36;5.20;99.90
14236;DHT22;7202;50.718;7.072;2022-12-07T08:23:06;5.10;99.90
14236;DHT22;7202;50.718;7.072;2022-12-07T08:25:35;5.20;99.90
14236;DHT22;7202;50.718;7.072;2022-12-07T08:28:04;5.20;99.90
14236;DHT22;7202;50.718;7.072;2022-12-07T08:30:33;5.30;99.90
14236;DHT22;7202;50.718;7.072;2022-12-07T08:33:02;5.20;99.90
14236;DHT22;7202;50.718;7.072;2022-12-07T08:35:34;5.20;99.90
14236;DHT22;7202;50.718;7.072;2022-12-07T08:38:03;5.20;99.90
14236;DHT22;7202;50.718;7.072;2022-12-07T08:40:31;5.30;99.90
14236;DHT22;7202;50.718;7.072;2022-12-07T08:43:00;5.30;99.90
14236;DHT22;7202;50.718;7.072;2022-12-07T08:45:29;5.30;99.90
14236;DHT22;7202;50.718;7.072;2022-12-07T08:48:03;5.30;99.90
14236;DHT22;7202;50.718;7.072;2022-12-07T08:50:34;5.40;99.90
14236;DHT22;7202;50.718;7.072;2022-12-07T08:53:05;5.40;99.90
14236;DHT22;7202;50.718;7.072;2022-12-07T08:55:35;5.40;99.90
14236;DHT22;7202;50.718;7.072;2022-12-07T08:58:03;5.50;99.90
14236;DHT22;7202;50.718;7.072;2022-12-07T09:00:32;5.50;99.90
14236;DHT22;7202;50.718;7.072;2022-12-07T09:03:00;5.60;99.90
14236;DHT22;7202;50.718;7.072;2022-12-07T09:05:29;5.60;99.90
14236;DHT22;7202;50.718;7.072;2022-12-07T09:08:01;5.60;99.90
14236;DHT22;7202;50.718;7.072;2022-12-07T09:10:30;5.60;99.90
14236;DHT22;7202;50.718;7.072;2022-12-07T09:12:58;5.60;99.90
14236;DHT22;7202;50.718;7.072;2022-12-07T09:15:28;5.50;99.90
14236;DHT22;7202;50.718;7.072;2022-12-07T09:17:57;5.50;99.90
14236;DHT22;7202;50.718;7.072;2022-12-07T09:20:26;5.60;99.90
14236;DHT22;7202;50.718;7.072;2022-12-07T09:22:55;5.60;99.90
14236;DHT22;7202;50.718;7.072;2022-12-07T09:25:25;5.60;99.90
14236;DHT22;7202;50.718;7.072;2022-12-07T09:27:57;5.70;99.90
14236;DHT22;7202;50.718;7.072;2022-12-07T09:30:26;5.70;99.90
14236;DHT22;7202;50.718;7.072;2022-12-07T09:32:56;5.70;99.90
14236;DHT22;7202;50.718;7.072;2022-12-07T09:35:25;5.70;99.90
14236;DHT22;7202;50.718;7.072;2022-12-07T09:37:54;5.80;99.90
14236;DHT22;7202;50.718;7.072;2022-12-07T09:40:24;5.90;99.90
14236;DHT22;7202;50.718;7.072;2022-12-07T09:42:54;5.90;99.90
14236;DHT22;7202;50.718;7.072;2022-12-07T09:45:26;5.90;99.90
14236;DHT22;7202;50.718;7.072;2022-12-07T09:47:55;6.00;99.90
14236;DHT22;7202;50.718;7.072;2022-12-07T09:50:27;6.00;99.90
14236;DHT22;7202;50.718;7.072;2022-12-07T09:53:05;6.10;99.90
14236;DHT22;7202;50.718;7.072;2022-12-07T09:55:36;6.10;99.90
14236;DHT22;7202;50.718;7.072;2022-12-07T09:58:06;6.20;99.90
14236;DHT22;7202;50.718;7.072;2022-12-07T10:00:34;6.30;99.90
14236;DHT22;7202;50.718;7.072;2022-12-07T10:03:03;6.30;99.90
14236;DHT22;7202;50.718;7.072;2022-12-07T10:05:34;6.30;99.90
14236;DHT22;7202;50.718;7.072;2022-12-07T10:08:04;6.30;99.90
14236;DHT22;7202;50.718;7.072;2022-12-07T10:10:35;6.30;99.90
14236;DHT22;7202;50.718;7.072;2022-12-07T10:13:07;6.40;99.90
14236;DHT22;7202;50.718;7.072;2022-12-07T10:15:46;6.40;99.90
14236;DHT22;7202;50.718;7.072;2022-12-07T10:18:27;6.40;99.90
14236;DHT22;7202;50.718;7.072;2022-12-07T10:21:10;6.40;99.90
14236;DHT22;7202;50.718;7.072;2022-12-07T10:23:40;6.50;99.90
14236;DHT22;7202;50.718;7.072;2022-12-07T10:26:27;6.60;99.90
14236;DHT22;7202;50.718;7.072;2022-12-07T10:28:59;6.60;99.90
14236;DHT22;7202;50.718;7.072;2022-12-07T10:31:29;6.60;99.90
14236;DHT22;7202;50.718;7.072;2022-12-07T10:33:59;6.70;99.90
14236;DHT22;7202;50.718;7.072;2022-12-07T10:36:35;6.70;99.90
14236;DHT22;7202;50.718;7.072;2022-12-07T10:39:12;6.70;99.90
14236;DHT22;7202;50.718;7.072;2022-12-07T10:41:54;6.70;99.90
14236;DHT22;7202;50.718;7.072;2022-12-07T10:44:25;6.90;99.90
14236;DHT22;7202;50.718;7.072;2022-12-07T10:50:25;7.00;99.90
14236;DHT22;7202;50.718;7.072;2022-12-07T10:53:06;7.00;99.90
14236;DHT22;7202;50.718;7.072;2022-12-07T10:55:48;7.00;99.90
14236;DHT22;7202;50.718;7.072;2022-12-07T10:58:37;7.00;99.90
14236;DHT22;7202;50.718;7.072;2022-12-07T11:01:16;7.00;99.90
14236;DHT22;7202;50.718;7.072;2022-12-07T11:04:13;7.10;99.90
14236;DHT22;7202;50.718;7.072;2022-12-07T11:06:47;7.20;99.90
14236;DHT22;7202;50.718;7.072;2022-12-07T11:09:48;7.20;99.90
14236;DHT22;7202;50.718;7.072;2022-12-07T11:12:51;7.20;99.90
14236;DHT22;7202;50.718;7.072;2022-12-07T11:15:26;7.20;99.90
14236;DHT22;7202;50.718;7.072;2022-12-07T11:18:03;7.20;99.90
14236;DHT22;7202;50.718;7.072;2022-12-07T11:20:43;7.20;99.90
14236;DHT22;7202;50.718;7.072;2022-12-07T11:23:18;7.20;99.90
14236;DHT22;7202;50.718;7.072;2022-12-07T11:25:53;7.30;99.90
14236;DHT22;7202;50.718;7.072;2022-12-07T11:28:33;7.20;99.90
14236;DHT22;7202;50.718;7.072;2022-12-07T11:31:12;7.20;99.90
14236;DHT22;7202;50.718;7.072;2022-12-07T11:33:45;7.30;99.90
14236;DHT22;7202;50.718;7.072;2022-12-07T11:36:31;7.30;99.90
14236;DHT22;7202;50.718;7.072;2022-12-07T11:39:04;7.30;99.90
14236;DHT22;7202;50.718;7.072;2022-12-07T11:41:35;7.20;99.90
14236;DHT22;7202;50.718;7.072;2022-12-07T11:44:07;7.20;99.90
14236;DHT22;7202;50.718;7.072;2022-12-07T11:46:56;7.30;99.90
14236;DHT22;7202;50.718;7.072;2022-12-07T11:49:35;7.30;99.90
14236;DHT22;7202;50.718;7.072;2022-12-07T11:52:10;7.40;99.90
14236;DHT22;7202;50.718;7.072;2022-12-07T11:54:45;7.60;99.90
14236;DHT22;7202;50.718;7.072;2022-12-07T11:57:17;7.70;99.90
14236;DHT22;7202;50.718;7.072;2022-12-07T11:59:51;7.80;99.90
14236;DHT22;7202;50.718;7.072;2022-12-07T12:02:26;7.90;99.90
14236;DHT22;7202;50.718;7.072;2022-12-07T12:05:01;7.90;99.90
14236;DHT22;7202;50.718;7.072;2022-12-07T12:07:34;7.90;99.90
14236;DHT22;7202;50.718;7.072;2022-12-07T12:10:45;7.90;99.90
14236;DHT22;7202;50.718;7.072;2022-12-07T12:19:58;7.80;99.90
14236;DHT22;7202;50.718;7.072;2022-12-07T12:22:34;7.80;99.90
14236;DHT22;7202;50.718;7.072;2022-12-07T12:25:05;7.80;99.90
14236;DHT22;7202;50.718;7.072;2022-12-07T12:27:37;7.70;99.90
14236;DHT22;7202;50.718;7.072;2022-12-07T12:30:25;7.60;99.90
14236;DHT22;7202;50.718;7.072;2022-12-07T12:33:02;7.50;99.90
14236;DHT22;7202;50.718;7.072;2022-12-07T12:35:35;7.50;99.90
14236;DHT22;7202;50.718;7.072;2022-12-07T12:38:27;7.40;99.90
14236;DHT22;7202;50.718;7.072;2022-12-07T12:40:57;7.30;99.90
14236;DHT22;7202;50.718;7.072;2022-12-07T12:43:47;7.30;99.90
14236;DHT22;7202;50.718;7.072;2022-12-07T12:46:50;7.20;99.90
14236;DHT22;7202;50.718;7.072;2022-12-07T12:49:44;7.10;99.90
14236;DHT22;7202;50.718;7.072;2022-12-07T12:58:39;7.00;99.90
14236;DHT22;7202;50.718;7.072;2022-12-07T13:04:34;7.00;99.90
14236;DHT22;7202;50.718;7.072;2022-12-07T13:07:12;7.00;99.90
14236;DHT22;7202;50.718;7.072;2022-12-07T13:09:44;7.00;99.90
14236;DHT22;7202;50.718;7.072;2022-12-07T13:12:14;7.00;99.90
14236;DHT22;7202;50.718;7.072;2022-12-07T13:15:19;7.00;99.90
14236;DHT22;7202;50.718;7.072;2022-12-07T13:18:01;7.00;99.90
14236;DHT22;7202;50.718;7.072;2022-12-07T13:20:48;7.00;99.90
14236;DHT22;7202;50.718;7.072;2022-12-07T13:23:22;7.00;99.90
14236;DHT22;7202;50.718;7.072;2022-12-07T13:25:59;7.00;99.90
14236;DHT22;7202;50.718;7.072;2022-12-07T13:28:35;6.90;99.90
14236;DHT22;7202;50.718;7.072;2022-12-07T13:31:34;6.90;99.90
14236;DHT22;7202;50.718;7.072;2022-12-07T13:34:26;6.80;99.90
14236;DHT22;7202;50.718;7.072;2022-12-07T13:36:56;6.80;99.90
14236;DHT22;7202;50.718;7.072;2022-12-07T13:39:26;6.80;99.90
14236;DHT22;7202;50.718;7.072;2022-12-07T13:41:56;6.80;99.90
14236;DHT22;7202;50.718;7.072;2022-12-07T13:44:27;6.80;99.90
14236;DHT22;7202;50.718;7.072;2022-12-07T13:47:04;6.80;99.90
14236;DHT22;7202;50.718;7.072;2022-12-07T13:49:38;6.80;99.90
14236;DHT22;7202;50.718;7.072;2022-12-07T13:52:14;6.80;99.90
14236;DHT22;7202;50.718;7.072;2022-12-07T13:54:46;6.70;99.90
14236;DHT22;7202;50.718;7.072;2022-12-07T13:57:14;6.70;99.90
14236;DHT22;7202;50.718;7.072;2022-12-07T13:59:45;6.70;99.90
14236;DHT22;7202;50.718;7.072;2022-12-07T14:02:20;6.70;99.90
14236;DHT22;7202;50.718;7.072;2022-12-07T14:04:50;6.70;99.90
14236;DHT22;7202;50.718;7.072;2022-12-07T14:07:22;6.80;99.90
14236;DHT22;7202;50.718;7.072;2022-12-07T14:09:59;6.80;99.90
14236;DHT22;7202;50.718;7.072;2022-12-07T14:12:29;6.70;99.90
14236;DHT22;7202;50.718;7.072;2022-12-07T14:14:59;6.70;99.90
14236;DHT22;7202;50.718;7.072;2022-12-07T14:17:31;6.60;99.90
14236;DHT22;7202;50.718;7.072;2022-12-07T14:20:01;6.50;99.90
14236;DHT22;7202;50.718;7.072;2022-12-07T14:22:32;6.50;99.90
14236;DHT22;7202;50.718;7.072;2022-12-07T14:25:19;6.50;99.90
14236;DHT22;7202;50.718;7.072;2022-12-07T14:27:51;6.50;99.90
14236;DHT22;7202;50.718;7.072;2022-12-07T14:30:24;6.40;99.90
14236;DHT22;7202;50.718;7.072;2022-12-07T14:32:58;6.40;99.90
14236;DHT22;7202;50.718;7.072;2022-12-07T14:35:28;6.30;99.90
14236;DHT22;7202;50.718;7.072;2022-12-07T14:37:57;6.20;99.90
14236;DHT22;7202;50.718;7.072;2022-12-07T14:40:27;6.10;99.90
14236;DHT22;7202;50.718;7.072;2022-12-07T14:42:59;6.10;99.90
14236;DHT22;7202;50.718;7.072;2022-12-07T14:45:29;6.00;99.90
14236;DHT22;7202;50.718;7.072;2022-12-07T14:47:59;5.90;99.90
14236;DHT22;7202;50.718;7.072;2022-12-07T14:50:50;5.90;99.90
14236;DHT22;7202;50.718;7.072;2022-12-07T14:53:41;5.90;99.90
14236;DHT22;7202;50.718;7.072;2022-12-07T14:56:12;5.80;99.90
14236;DHT22;7202;50.718;7.072;2022-12-07T14:58:41;5.80;99.90
14236;DHT22;7202;50.718;7.072;2022-12-07T15:01:09;5.80;99.90
14236;DHT22;7202;50.718;7.072;2022-12-07T15:03:39;5.70;99.90
14236;DHT22;7202;50.718;7.072;2022-12-07T15:06:13;5.70;99.90
14236;DHT22;7202;50.718;7.072;2022-12-07T15:08:42;5.70;99.90
14236;DHT22;7202;50.718;7.072;2022-12-07T15:11:13;5.70;99.90
14236;DHT22;7202;50.718;7.072;2022-12-07T15:13:42;5.70;99.90
14236;DHT22;7202;50.718;7.072;2022-12-07T15:16:28;5.70;99.90
14236;DHT22;7202;50.718;7.072;2022-12-07T15:19:19;5.60;99.90
14236;DHT22;7202;50.718;7.072;2022-12-07T15:21:56;5.60;99.90
14236;DHT22;7202;50.718;7.072;2022-12-07T15:24:26;5.60;99.90
14236;DHT22;7202;50.718;7.072;2022-12-07T15:26:55;5.60;99.90
14236;DHT22;7202;50.718;7.072;2022-12-07T15:29:26;5.60;99.90
14236;DHT22;7202;50.718;7.072;2022-12-07T15:31:55;5.60;99.90
14236;DHT22;7202;50.718;7.072;2022-12-07T15:34:27;5.60;99.90
14236;DHT22;7202;50.718;7.072;2022-12-07T15:37:04;5.60;99.90
14236;DHT22;7202;50.718;7.072;2022-12-07T15:39:33;5.70;99.90
14236;DHT22;7202;50.718;7.072;2022-12-07T15:42:02;5.70;99.90
14236;DHT22;7202;50.718;7.072;2022-12-07T15:44:31;5.60;99.90
14236;DHT22;7202;50.718;7.072;2022-12-07T15:47:17;5.60;99.90
14236;DHT22;7202;50.718;7.072;2022-12-07T15:49:47;5.60;99.90
14236;DHT22;7202;50.718;7.072;2022-12-07T15:52:15;5.60;99.90
14236;DHT22;7202;50.718;7.072;2022-12-07T15:54:44;5.60;99.90
14236;DHT22;7202;50.718;7.072;2022-12-07T15:57:14;5.60;99.90
14236;DHT22;7202;50.718;7.072;2022-12-07T15:59:49;5.50;99.90
14236;DHT22;7202;50.718;7.072;2022-12-07T16:02:18;5.50;99.90
14236;DHT22;7202;50.718;7.072;2022-12-07T16:04:48;5.50;99.90
14236;DHT22;7202;50.718;7.072;2022-12-07T16:07:18;5.50;99.90
14236;DHT22;7202;50.718;7.072;2022-12-07T16:09:46;5.50;99.90
14236;DHT22;7202;50.718;7.072;2022-12-07T16:12:16;5.50;99.90
14236;DHT22;7202;50.718;7.072;2022-12-07T16:14:45;5.50;99.90
14236;DHT22;7202;50.718;7.072;2022-12-07T16:17:14;5.40;99.90
14236;DHT22;7202;50.718;7.072;2022-12-07T16:19:42;5.50;99.90
14236;DHT22;7202;50.718;7.072;2022-12-07T16:22:12;5.50;99.90
14236;DHT22;7202;50.718;7.072;2022-12-07T16:24:41;5.50;99.90
14236;DHT22;7202;50.718;7.072;2022-12-07T16:27:09;5.50;99.90
14236;DHT22;7202;50.718;7.072;2022-12-07T16:29:38;5.50;99.90
14236;DHT22;7202;50.718;7.072;2022-12-07T16:32:07;5.50;99.90
14236;DHT22;7202;50.718;7.072;2022-12-07T16:34:35;5.50;99.90
14236;DHT22;7202;50.718;7.072;2022-12-07T16:37:04;5.50;99.90
14236;DHT22;7202;50.718;7.072;2022-12-07T16:39:34;5.50;99.90
14236;DHT22;7202;50.718;7.072;2022-12-07T16:42:03;5.50;99.90
14236;DHT22;7202;50.718;7.072;2022-12-07T16:44:31;5.50;99.90
14236;DHT22;7202;50.718;7.072;2022-12-07T16:47:00;5.50;99.90
14236;DHT22;7202;50.718;7.072;2022-12-07T16:49:29;5.50;99.90
14236;DHT22;7202;50.718;7.072;2022-12-07T16:51:57;5.40;99.90
14236;DHT22;7202;50.718;7.072;2022-12-07T16:54:48;5.40;99.90
14236;DHT22;7202;50.718;7.072;2022-12-07T16:57:17;5.50;99.90
14236;DHT22;7202;50.718;7.072;2022-12-07T16:59:50;5.40;99.90